createdAt,value
2023-03-02T00:00:42.184Z,102576.63
2023-03-02T00:03:10.459Z,102570.34
2023-03-02T00:05:41.061Z,102573.06
2023-03-02T00:08:08.250Z,102568.44
2023-03-02T00:10:36.189Z,102567.03
2023-03-02T00:13:03.367Z,102567.28
2023-03-02T00:15:29.935Z,102572.97
2023-03-02T00:17:56.482Z,102563.94
2023-03-02T00:20:23.019Z,102570.25
2023-03-02T00:22:50.008Z,102563.94
2023-03-02T00:25:17.503Z,102558.75
2023-03-02T00:27:44.756Z,102549.53
2023-03-02T00:30:12.886Z,102554.38
2023-03-02T00:32:40.337Z,102558.16
2023-03-02T00:35:07.503Z,102541.81
2023-03-02T00:37:36.839Z,102542.06
2023-03-02T00:40:06.677Z,102535.00
2023-03-02T00:42:34.068Z,102540.44
2023-03-02T00:45:01.596Z,102538.78
2023-03-02T00:47:33.844Z,102536.06
2023-03-02T00:50:00.897Z,102537.94
2023-03-02T00:52:29.484Z,102536.28
2023-03-02T00:54:55.993Z,102536.53
2023-03-02T00:57:22.888Z,102537.81
2023-03-02T00:59:49.433Z,102529.66
2023-03-02T01:02:15.941Z,102526.94
2023-03-02T01:04:43.738Z,102540.53
2023-03-02T01:07:12.723Z,102526.94
2023-03-02T01:09:41.333Z,102529.91
2023-03-02T01:12:11.001Z,102538.06
2023-03-02T01:14:40.060Z,102539.09
2023-03-02T01:17:07.647Z,102534.97
2023-03-02T01:19:34.157Z,102532.25
2023-03-02T01:22:00.741Z,102536.03
2023-03-02T01:24:27.314Z,102531.66
2023-03-02T01:26:53.995Z,102534.16
2023-03-02T01:29:20.708Z,102533.31
2023-03-02T01:31:47.471Z,102528.94
2023-03-02T01:34:14.065Z,102535.44
2023-03-02T01:36:40.574Z,102532.72
2023-03-02T01:39:07.076Z,102542.78
2023-03-02T01:41:33.603Z,102534.84
2023-03-02T01:44:00.169Z,102526.94
2023-03-02T01:46:30.469Z,102524.22
2023-03-02T01:48:59.057Z,102511.69
2023-03-02T01:51:27.498Z,102512.69
2023-03-02T01:53:59.101Z,102512.13
2023-03-02T01:56:34.810Z,102516.72
2023-03-02T01:59:06.510Z,102515.91
2023-03-02T02:01:35.868Z,102508.78
2023-03-02T02:04:02.902Z,102503.59
2023-03-02T02:06:37.449Z,102516.94
2023-03-02T02:09:08.345Z,102507.16
2023-03-02T02:11:35.166Z,102514.22
2023-03-02T02:14:03.270Z,102509.88
2023-03-02T02:16:34.336Z,102508.22
2023-03-02T02:19:02.281Z,102516.59
2023-03-02T02:21:29.495Z,102520.97
2023-03-02T02:24:12.015Z,102514.69
2023-03-02T02:26:54.482Z,102498.63
2023-03-02T02:29:26.155Z,102498.88
2023-03-02T02:32:12.206Z,102502.41
2023-03-02T02:34:50.973Z,102494.47
2023-03-02T02:37:23.926Z,102497.44
2023-03-02T02:39:51.676Z,102488.47
2023-03-02T02:42:27.371Z,102493.91
2023-03-02T02:44:57.864Z,102492.00
2023-03-02T02:47:24.934Z,102487.41
2023-03-02T02:49:53.927Z,102493.91
2023-03-02T02:52:23.214Z,102496.84
2023-03-02T02:54:52.200Z,102496.84
2023-03-02T02:57:20.715Z,102495.19
2023-03-02T02:59:50.834Z,102485.16
2023-03-02T03:02:21.786Z,102489.53
2023-03-02T03:04:48.570Z,102493.28
2023-03-02T03:07:25.368Z,102490.56
2023-03-02T03:10:02.070Z,102489.75
2023-03-02T03:12:31.930Z,102484.56
2023-03-02T03:15:00.111Z,102481.03
2023-03-02T03:17:27.017Z,102474.72
2023-03-02T03:19:53.535Z,102477.69
2023-03-02T03:22:20.118Z,102474.16
2023-03-02T03:24:46.718Z,102481.25
2023-03-02T03:27:15.758Z,102476.06
2023-03-02T03:29:44.994Z,102475.22
2023-03-02T03:32:11.596Z,102478.16
2023-03-02T03:34:40.877Z,102482.56
2023-03-02T03:37:13.894Z,102471.91
2023-03-02T03:39:40.964Z,102475.69
2023-03-02T03:42:07.690Z,102474.03
2023-03-02T03:44:34.529Z,102477.81
2023-03-02T03:47:01.063Z,102475.69
2023-03-02T03:49:27.654Z,102478.16
2023-03-02T03:51:54.329Z,102478.88
2023-03-02T03:54:20.879Z,102476.16
2023-03-02T03:56:49.964Z,102473.44
2023-03-02T03:59:20.275Z,102480.75
2023-03-02T04:01:49.704Z,102478.03
2023-03-02T04:04:20.779Z,102483.47
2023-03-02T04:06:47.447Z,102486.19
2023-03-02T04:09:15.437Z,102489.13
2023-03-02T04:11:43.663Z,102483.94
2023-03-02T04:14:11.238Z,102494.00
2023-03-02T04:16:38.959Z,102496.94
2023-03-02T04:19:09.671Z,102493.38
2023-03-02T04:21:41.756Z,102488.78
2023-03-02T04:24:09.245Z,102487.13
2023-03-02T04:26:37.318Z,102486.91
2023-03-02T04:29:04.873Z,102487.94
2023-03-02T04:31:31.597Z,102493.38
2023-03-02T04:33:58.839Z,102478.97
2023-03-02T04:36:26.744Z,102481.94
2023-03-02T04:38:53.433Z,102485.72
2023-03-02T04:41:19.943Z,102478.38
2023-03-02T04:43:46.544Z,102475.06
2023-03-02T04:46:19.525Z,102474.84
2023-03-02T04:48:46.071Z,102476.72
2023-03-02T04:51:24.101Z,102480.28
2023-03-02T04:53:56.606Z,102484.03
2023-03-02T04:56:23.306Z,102482.38
2023-03-02T04:58:50.334Z,102481.56
2023-03-02T05:01:18.620Z,102475.06
2023-03-02T05:03:46.031Z,102478.38
2023-03-02T05:06:12.656Z,102478.97
2023-03-02T05:08:39.675Z,102480.16
2023-03-02T05:11:07.880Z,102482.41
2023-03-02T05:13:35.728Z,102475.44
2023-03-02T05:16:02.619Z,102480.16
2023-03-02T05:18:29.438Z,102486.22
2023-03-02T05:20:56.078Z,102479.50
2023-03-02T05:23:27.559Z,102473.81
2023-03-02T05:25:55.879Z,102470.03
2023-03-02T05:28:24.381Z,102465.44
2023-03-02T05:30:51.558Z,102473.34
2023-03-02T05:33:19.236Z,102465.44
2023-03-02T05:35:46.595Z,102461.88
2023-03-02T05:38:13.577Z,102467.31
2023-03-02T05:40:42.619Z,102461.66
2023-03-02T05:43:10.766Z,102460.00
2023-03-02T05:45:38.778Z,102465.44
2023-03-02T05:48:06.211Z,102475.25
2023-03-02T05:50:33.501Z,102470.63
2023-03-02T05:53:02.432Z,102475.81
2023-03-02T05:55:29.741Z,102470.16
2023-03-02T05:57:56.968Z,102479.13
2023-03-02T06:00:23.890Z,102474.53
2023-03-02T06:02:50.453Z,102479.13
2023-03-02T06:05:19.427Z,102471.81
2023-03-02T06:07:46.353Z,102479.97
2023-03-02T06:10:13.983Z,102477.50
2023-03-02T06:12:40.801Z,102481.25
2023-03-02T06:15:07.959Z,102478.78
2023-03-02T06:17:35.127Z,102471.69
2023-03-02T06:20:02.086Z,102478.19
2023-03-02T06:22:28.578Z,102475.69
2023-03-02T06:24:57.885Z,102487.41
2023-03-02T06:27:24.424Z,102488.22
2023-03-02T06:29:51.002Z,102487.19
2023-03-02T06:32:17.709Z,102501.09
2023-03-02T06:34:44.348Z,102494.63
2023-03-02T06:37:11.153Z,102496.28
2023-03-02T06:39:37.807Z,102504.44
2023-03-02T06:42:04.430Z,102510.94
2023-03-02T06:44:31.026Z,102505.25
2023-03-02T06:46:57.553Z,102510.94
2023-03-02T06:49:24.891Z,102510.94
2023-03-02T06:51:51.580Z,102507.41
2023-03-02T06:54:18.264Z,102511.97
2023-03-02T06:56:44.824Z,102514.47
2023-03-02T06:59:11.336Z,102501.34
2023-03-02T07:01:37.874Z,102507.03
2023-03-02T07:04:04.512Z,102501.59
2023-03-02T07:06:31.235Z,102500.78
2023-03-02T07:08:57.708Z,102507.84
2023-03-02T07:11:24.203Z,102504.06
2023-03-02T07:13:51.412Z,102509.25
2023-03-02T07:16:18.055Z,102506.78
2023-03-02T07:18:44.654Z,102509.25
2023-03-02T07:21:11.242Z,102511.75
2023-03-02T07:23:37.838Z,102512.59
2023-03-02T07:26:08.457Z,102510.69
2023-03-02T07:28:40.170Z,102517.41
2023-03-02T07:31:07.673Z,102523.69
2023-03-02T07:33:34.678Z,102525.56
2023-03-02T07:36:01.506Z,102525.81
2023-03-02T07:38:28.420Z,102514.13
2023-03-02T07:40:55.383Z,102522.28
2023-03-02T07:43:24.096Z,102518.72
2023-03-02T07:45:50.655Z,102513.50
2023-03-02T07:48:18.067Z,102517.91
2023-03-02T07:50:44.638Z,102521.19
2023-03-02T07:53:11.197Z,102529.13
2023-03-02T07:55:41.231Z,102521.81
2023-03-02T07:58:08.096Z,102526.41
2023-03-02T08:00:36.746Z,102515.06
2023-03-02T08:03:03.401Z,102519.19
2023-03-02T08:05:30.961Z,102529.25
2023-03-02T08:07:57.682Z,102522.16
2023-03-02T08:10:24.224Z,102522.16
2023-03-02T08:12:50.813Z,102522.38
2023-03-02T08:15:17.468Z,102509.88
2023-03-02T08:17:44.942Z,102522.63
2023-03-02T08:20:12.273Z,102516.38
2023-03-02T08:22:38.885Z,102503.81
2023-03-02T08:25:07.404Z,102509.25
2023-03-02T08:27:33.984Z,102517.41
2023-03-02T08:30:00.612Z,102514.69
2023-03-02T08:32:27.420Z,102514.47
2023-03-02T08:34:54.088Z,102509.88
2023-03-02T08:37:20.632Z,102502.53
2023-03-02T08:39:47.302Z,102506.31
2023-03-02T08:42:13.933Z,102503.34
2023-03-02T08:44:40.592Z,102500.63
2023-03-02T08:47:07.103Z,102502.53
2023-03-02T08:49:33.652Z,102507.16
2023-03-02T08:52:00.697Z,102502.53
2023-03-02T08:54:27.329Z,102506.31
2023-03-02T08:56:53.839Z,102500.88
2023-03-02T08:59:21.669Z,102502.19
2023-03-02T09:01:48.361Z,102504.69
2023-03-02T09:04:15.056Z,102513.66
2023-03-02T09:06:43.432Z,102512.81
2023-03-02T09:09:15.242Z,102508.22
2023-03-02T09:11:42.412Z,102506.06
2023-03-02T09:14:09.659Z,102506.91
2023-03-02T09:16:36.256Z,102499.81
2023-03-02T09:19:02.980Z,102505.03
2023-03-02T09:21:29.615Z,102505.03
2023-03-02T09:23:58.083Z,102500.44
2023-03-02T09:26:26.726Z,102506.69
2023-03-02T09:28:53.534Z,102501.25
2023-03-02T09:31:20.345Z,102503.13
2023-03-02T09:33:46.956Z,102494.16
2023-03-02T09:36:19.606Z,102489.53
2023-03-02T09:38:46.473Z,102488.47
2023-03-02T09:41:19.386Z,102490.38
2023-03-02T09:44:10.594Z,102486.84
2023-03-02T09:47:02.305Z,102488.22
2023-03-02T09:49:55.284Z,102487.22
2023-03-02T09:52:36.838Z,102483.44
2023-03-02T09:55:16.770Z,102487.78
2023-03-02T09:57:44.181Z,102482.34
2023-03-02T10:00:27.450Z,102481.28
2023-03-02T10:03:16.267Z,102486.50
2023-03-02T10:05:49.315Z,102479.19
2023-03-02T10:08:37.545Z,102483.78
2023-03-02T10:11:22.377Z,102485.69
2023-03-02T10:13:59.593Z,102482.97
2023-03-02T10:16:48.665Z,102486.25
2023-03-02T10:19:25.247Z,102476.22
2023-03-02T10:22:03.353Z,102475.75
2023-03-02T10:24:39.571Z,102474.66
2023-03-02T10:27:26.431Z,102475.88
2023-03-02T10:30:06.501Z,102469.94
2023-03-02T10:32:37.805Z,102464.03
2023-03-02T10:35:16.380Z,102473.00
2023-03-02T10:37:43.000Z,102468.19
2023-03-02T10:40:56.987Z,102465.22
2023-03-02T10:43:31.732Z,102468.53
2023-03-02T10:46:03.725Z,102466.38
2023-03-02T10:48:30.748Z,102467.00
2023-03-02T10:50:59.077Z,102468.63
2023-03-02T10:53:26.016Z,102464.63
2023-03-02T10:55:53.905Z,102465.44
2023-03-02T10:58:29.413Z,102462.25
2023-03-02T11:00:58.451Z,102464.72
2023-03-02T11:03:25.433Z,102467.22
2023-03-02T11:05:52.296Z,102447.94
2023-03-02T11:08:22.710Z,102456.69
2023-03-02T11:10:59.824Z,102455.63
2023-03-02T11:13:39.008Z,102461.88
2023-03-02T11:16:28.444Z,102452.41
2023-03-02T11:19:00.321Z,102462.47
2023-03-02T11:21:57.031Z,102465.78
2023-03-02T11:24:33.591Z,102450.06
2023-03-02T11:27:06.065Z,102456.88
2023-03-02T11:29:47.521Z,102459.97
2023-03-02T11:32:32.158Z,102459.72
2023-03-02T11:35:04.728Z,102447.53
2023-03-02T11:37:45.170Z,102451.06
2023-03-02T11:40:26.510Z,102463.16
2023-03-02T11:42:58.343Z,102462.41
2023-03-02T11:45:46.565Z,102457.53
2023-03-02T11:48:27.155Z,102456.50
2023-03-02T11:50:56.413Z,102452.44
2023-03-02T11:53:27.357Z,102456.84
2023-03-02T11:55:53.977Z,102446.78
2023-03-02T11:58:24.650Z,102449.50
2023-03-02T12:00:52.172Z,102452.81
2023-03-02T12:03:32.048Z,102454.72
2023-03-02T12:06:00.908Z,102453.44
2023-03-02T12:08:27.436Z,102450.44
2023-03-02T12:11:05.780Z,102456.50
2023-03-02T12:13:32.279Z,102446.16
2023-03-02T12:15:58.993Z,102440.72
2023-03-02T12:18:25.580Z,102436.69
2023-03-02T12:21:18.538Z,102434.53
2023-03-02T12:23:51.067Z,102441.66
2023-03-02T12:26:20.673Z,102437.03
2023-03-02T12:29:11.652Z,102439.28
2023-03-02T12:31:46.301Z,102420.78
2023-03-02T12:34:25.192Z,102435.22
2023-03-02T12:36:59.678Z,102432.50
2023-03-02T12:39:40.567Z,102430.38
2023-03-02T12:42:31.959Z,102422.22
2023-03-02T12:45:23.243Z,102423.63
2023-03-02T12:47:57.038Z,102414.38
2023-03-02T12:50:27.733Z,102414.13
2023-03-02T12:53:03.214Z,102411.16
2023-03-02T12:55:30.392Z,102406.53
2023-03-02T12:58:01.250Z,102417.19
2023-03-02T13:00:31.723Z,102409.84
2023-03-02T13:02:58.872Z,102407.72
2023-03-02T13:05:29.209Z,102397.63
2023-03-02T13:08:04.954Z,102393.00
2023-03-02T13:10:36.153Z,102388.38
2023-03-02T13:13:14.479Z,102384.34
2023-03-02T13:15:53.787Z,102383.03
2023-03-02T13:18:25.702Z,102381.16
2023-03-02T13:20:52.968Z,102367.25
2023-03-02T13:23:20.174Z,102365.13
2023-03-02T13:26:16.793Z,102369.50
2023-03-02T13:28:43.386Z,102364.88
2023-03-02T13:31:23.374Z,102351.84
2023-03-02T13:33:52.409Z,102353.50
2023-03-02T13:36:26.045Z,102358.44
2023-03-02T13:38:56.137Z,102355.72
2023-03-02T13:41:34.639Z,102357.09
2023-03-02T13:44:19.834Z,102350.59
2023-03-02T13:46:47.615Z,102347.63
2023-03-02T13:49:14.271Z,102353.06
2023-03-02T13:51:47.287Z,102349.84
2023-03-02T13:54:22.540Z,102349.84
2023-03-02T13:56:51.196Z,102355.03
2023-03-02T13:59:19.380Z,102350.19
2023-03-02T14:01:46.326Z,102349.09
2023-03-02T14:04:14.810Z,102333.34
2023-03-02T14:06:41.416Z,102348.63
2023-03-02T14:09:08.032Z,102338.53
2023-03-02T14:11:41.652Z,102341.84
2023-03-02T14:14:12.404Z,102332.59
2023-03-02T14:16:38.904Z,102342.41
2023-03-02T14:19:05.443Z,102328.56
2023-03-02T14:21:32.388Z,102330.75
2023-03-02T14:23:59.224Z,102335.19
2023-03-02T14:26:38.317Z,102330.28
2023-03-02T14:29:22.472Z,102321.06
2023-03-02T14:31:49.362Z,102319.16
2023-03-02T14:34:17.465Z,102318.06
2023-03-02T14:36:46.781Z,102337.72
2023-03-02T14:39:37.546Z,102323.84
2023-03-02T14:42:05.589Z,102315.41
2023-03-02T14:44:32.642Z,102314.59
2023-03-02T14:46:59.144Z,102321.69
2023-03-02T14:49:25.734Z,102312.44
2023-03-02T14:51:59.058Z,102313.00
2023-03-02T14:54:26.528Z,102313.81
2023-03-02T14:56:53.397Z,102320.94
2023-03-02T14:59:19.966Z,102319.88
2023-03-02T15:01:46.580Z,102311.41
2023-03-02T15:04:13.151Z,102306.78
2023-03-02T15:06:43.079Z,102315.56
2023-03-02T15:09:11.095Z,102304.66
2023-03-02T15:11:37.780Z,102300.84
2023-03-02T15:14:04.354Z,102295.97
2023-03-02T15:16:30.996Z,102308.25
2023-03-02T15:18:58.903Z,102313.72
2023-03-02T15:21:25.777Z,102298.19
2023-03-02T15:23:52.331Z,102295.22
2023-03-02T15:26:18.957Z,102284.31
2023-03-02T15:28:45.715Z,102305.63
2023-03-02T15:31:17.190Z,102291.97
2023-03-02T15:33:45.554Z,102296.34
2023-03-02T15:36:13.282Z,102291.72
2023-03-02T15:38:39.957Z,102299.66
2023-03-02T15:41:13.300Z,102299.41
2023-03-02T15:43:39.964Z,102298.31
2023-03-02T15:46:09.132Z,102299.13
2023-03-02T15:48:35.855Z,102301.63
2023-03-02T15:51:05.467Z,102303.53
2023-03-02T15:53:36.769Z,102302.44
2023-03-02T15:56:09.637Z,102306.81
2023-03-02T15:58:36.743Z,102310.34
2023-03-02T16:01:08.135Z,102312.84
2023-03-02T16:03:34.785Z,102313.09
2023-03-02T16:06:01.440Z,102316.66
2023-03-02T16:08:28.047Z,102317.47
2023-03-02T16:11:02.260Z,102315.56
2023-03-02T16:13:30.480Z,102318.31
2023-03-02T16:15:57.356Z,102337.41
2023-03-02T16:18:23.986Z,102331.94
2023-03-02T16:20:50.586Z,102333.03
2023-03-02T16:23:17.109Z,102333.03
2023-03-02T16:25:44.453Z,102328.63
2023-03-02T16:28:12.064Z,102343.09
2023-03-02T16:30:39.700Z,102344.16
2023-03-02T16:33:09.949Z,102341.13
2023-03-02T16:35:37.433Z,102350.38
2023-03-02T16:38:05.718Z,102354.19
2023-03-02T16:40:33.491Z,102349.81
2023-03-02T16:43:00.092Z,102356.09
2023-03-02T16:45:27.040Z,102356.84
2023-03-02T16:47:53.921Z,102369.97
2023-03-02T16:50:20.871Z,102364.47
2023-03-02T16:52:47.417Z,102370.41
2023-03-02T16:55:17.585Z,102376.69
2023-03-02T16:57:44.587Z,102372.31
2023-03-02T17:00:15.407Z,102368.19
2023-03-02T17:02:42.280Z,102366.53
2023-03-02T17:05:10.097Z,102376.34
2023-03-02T17:07:36.687Z,102380.50
2023-03-02T17:10:03.896Z,102370.41
2023-03-02T17:12:30.435Z,102375.84
2023-03-02T17:14:56.926Z,102378.59
2023-03-02T17:17:23.471Z,102382.13
2023-03-02T17:19:50.092Z,102389.22
2023-03-02T17:22:17.352Z,102390.31
2023-03-02T17:24:43.851Z,102403.94
2023-03-02T17:27:23.781Z,102401.22
2023-03-02T17:29:52.160Z,102400.66
2023-03-02T17:32:19.006Z,102403.38
2023-03-02T17:34:45.606Z,102407.16
2023-03-02T17:37:12.136Z,102412.63
2023-03-02T17:39:39.007Z,102410.16
2023-03-02T17:42:06.270Z,102408.50
2023-03-02T17:44:34.561Z,102406.84
2023-03-02T17:47:03.953Z,102413.97
2023-03-02T17:49:31.168Z,102413.38
2023-03-02T17:51:57.878Z,102422.63
2023-03-02T17:54:24.452Z,102414.69
2023-03-02T17:56:51.025Z,102422.03
2023-03-02T17:59:17.859Z,102420.41
2023-03-02T18:01:44.565Z,102425.03
2023-03-02T18:04:11.327Z,102427.97
2023-03-02T18:06:37.908Z,102436.75
2023-03-02T18:09:04.528Z,102432.13
2023-03-02T18:11:31.194Z,102433.22
2023-03-02T18:13:58.490Z,102436.16
2023-03-02T18:16:27.966Z,102449.78
2023-03-02T18:18:55.782Z,102440.78
2023-03-02T18:21:22.986Z,102440.78
2023-03-02T18:23:49.580Z,102442.13
2023-03-02T18:26:16.631Z,102438.88
2023-03-02T18:28:43.230Z,102452.78
2023-03-02T18:31:13.191Z,102460.13
2023-03-02T18:33:39.909Z,102454.09
2023-03-02T18:36:06.730Z,102456.00
2023-03-02T18:38:34.799Z,102452.69
2023-03-02T18:41:03.580Z,102472.59
2023-03-02T18:43:34.786Z,102462.78
2023-03-02T18:46:10.430Z,102472.34
2023-03-02T18:48:39.563Z,102468.25
2023-03-02T18:51:06.153Z,102468.47
2023-03-02T18:53:32.958Z,102466.81
2023-03-02T18:55:59.517Z,102477.91
2023-03-02T18:58:26.146Z,102470.81
2023-03-02T19:00:54.294Z,102477.91
2023-03-02T19:03:21.009Z,102473.56
2023-03-02T19:05:47.573Z,102477.09
2023-03-02T19:08:14.102Z,102482.56
2023-03-02T19:10:42.607Z,102473.00
2023-03-02T19:13:11.639Z,102483.03
2023-03-02T19:15:41.845Z,102469.66
2023-03-02T19:18:08.687Z,102474.28
2023-03-02T19:20:35.469Z,102470.75
2023-03-02T19:23:02.264Z,102475.59
2023-03-02T19:25:28.862Z,102478.09
2023-03-02T19:27:55.480Z,102486.84
2023-03-02T19:30:25.308Z,102479.16
2023-03-02T19:32:53.954Z,102479.16
2023-03-02T19:35:23.188Z,102474.78
2023-03-02T19:37:49.864Z,102485.69
2023-03-02T19:40:18.964Z,102485.69
2023-03-02T19:42:46.400Z,102477.75
2023-03-02T19:45:20.947Z,102491.38
2023-03-02T19:47:48.122Z,102490.31
2023-03-02T19:50:17.048Z,102491.38
2023-03-02T19:52:43.658Z,102496.25
2023-03-02T19:55:13.055Z,102497.31
2023-03-02T19:57:40.472Z,102494.59
2023-03-02T20:00:14.532Z,102497.31
2023-03-02T20:02:41.111Z,102486.09
2023-03-02T20:05:09.132Z,102495.09
2023-03-02T20:07:36.440Z,102487.72
2023-03-02T20:10:04.709Z,102498.88
2023-03-02T20:12:31.310Z,102503.75
2023-03-02T20:14:57.893Z,102493.66
2023-03-02T20:17:24.468Z,102502.09
2023-03-02T20:19:51.655Z,102496.91
2023-03-02T20:22:18.428Z,102511.34
2023-03-02T20:24:45.025Z,102500.69
2023-03-02T20:27:12.551Z,102505.63
2023-03-02T20:29:41.387Z,102503.19
2023-03-02T20:32:10.010Z,102508.63
2023-03-02T20:34:39.383Z,102501.50
2023-03-02T20:37:07.402Z,102510.53
2023-03-02T20:39:37.115Z,102508.84
2023-03-02T20:42:04.826Z,102499.03
2023-03-02T20:44:31.470Z,102509.38
2023-03-02T20:47:02.350Z,102503.91
2023-03-02T20:49:30.990Z,102511.50
2023-03-02T20:51:59.573Z,102509.03
2023-03-02T20:54:30.833Z,102500.25
2023-03-02T20:56:58.712Z,102507.59
2023-03-02T20:59:26.227Z,102505.97
2023-03-02T21:01:52.787Z,102509.72
2023-03-02T21:04:19.693Z,102506.19
2023-03-02T21:06:46.600Z,102515.69
2023-03-02T21:09:14.489Z,102523.00
2023-03-02T21:11:41.218Z,102521.34
2023-03-02T21:14:08.033Z,102515.09
2023-03-02T21:16:38.447Z,102524.34
2023-03-02T21:19:08.699Z,102519.59
2023-03-02T21:21:41.730Z,102521.50
2023-03-02T21:24:16.868Z,102514.16
2023-03-02T21:26:45.419Z,102526.94
2023-03-02T21:29:13.077Z,102531.34
2023-03-02T21:31:42.185Z,102524.22
2023-03-02T21:34:08.745Z,102516.03
2023-03-02T21:36:35.481Z,102519.84
2023-03-02T21:39:02.611Z,102519.28
2023-03-02T21:41:29.174Z,102520.31
2023-03-02T21:43:55.787Z,102518.69
2023-03-02T21:46:23.277Z,102519.75
2023-03-02T21:48:51.187Z,102522.97
2023-03-02T21:51:18.502Z,102516.69
2023-03-02T21:53:45.037Z,102521.31
2023-03-02T21:56:20.566Z,102514.19
2023-03-02T21:58:55.888Z,102521.78
2023-03-02T22:01:23.928Z,102522.88
2023-03-02T22:03:50.523Z,102535.06
2023-03-02T22:06:20.468Z,102530.69
2023-03-02T22:08:47.692Z,102524.38
2023-03-02T22:11:21.679Z,102524.66
2023-03-02T22:13:52.597Z,102525.72
2023-03-02T22:16:22.060Z,102524.28
2023-03-02T22:18:53.476Z,102533.28
2023-03-02T22:21:34.560Z,102528.91
2023-03-02T22:24:17.536Z,102524.78
2023-03-02T22:26:45.643Z,102518.75
2023-03-02T22:29:16.627Z,102520.88
2023-03-02T22:31:47.156Z,102528.22
2023-03-02T22:34:15.714Z,102521.94
2023-03-02T22:36:42.360Z,102519.44
2023-03-02T22:39:17.965Z,102534.94
2023-03-02T22:41:44.517Z,102520.16
2023-03-02T22:44:13.692Z,102527.50
2023-03-02T22:46:41.281Z,102535.44
2023-03-02T22:49:16.546Z,102544.91
2023-03-02T22:51:44.962Z,102547.63
2023-03-02T22:54:21.784Z,102548.69
2023-03-02T22:56:52.351Z,102554.13
2023-03-02T22:59:21.667Z,102549.16
2023-03-02T23:01:49.017Z,102548.56
2023-03-02T23:04:45.710Z,102556.72
2023-03-02T23:07:20.122Z,102544.44
2023-03-02T23:09:47.756Z,102548.81
2023-03-02T23:12:20.285Z,102549.03
2023-03-02T23:14:51.070Z,102550.09
2023-03-02T23:17:37.118Z,102563.72
2023-03-02T23:20:06.539Z,102560.41
2023-03-02T23:24:59.543Z,102541.38
2023-03-02T23:27:26.137Z,102539.69
2023-03-02T23:29:53.094Z,102544.31
2023-03-02T23:32:19.934Z,102548.34
2023-03-02T23:34:46.646Z,102558.16
2023-03-02T23:37:13.204Z,102552.13
2023-03-02T23:39:39.731Z,102555.09
2023-03-02T23:42:06.322Z,102557.22
2023-03-02T23:44:32.853Z,102555.31
2023-03-02T23:46:59.505Z,102560.53
2023-03-02T23:49:26.054Z,102556.38
2023-03-02T23:51:52.672Z,102562.91
2023-03-02T23:54:19.268Z,102564.78
2023-03-02T23:56:45.792Z,102566.69
2023-03-02T23:59:12.339Z,102565.88
